createdAt,value
2022-12-10T00:00:59.947Z,115.20
2022-12-10T00:01:59.979Z,109.10
2022-12-10T00:02:59.910Z,109.20
2022-12-10T00:03:59.889Z,114.50
2022-12-10T00:04:59.904Z,112.00
2022-12-10T00:05:59.896Z,113.30
2022-12-10T00:07:00.055Z,118.90
2022-12-10T00:07:59.948Z,171.20
2022-12-10T00:08:59.904Z,158.10
2022-12-10T00:09:59.899Z,172.30
2022-12-10T00:10:59.822Z,211.60
2022-12-10T00:11:59.859Z,141.40
2022-12-10T00:12:59.867Z,118.00
2022-12-10T00:13:59.791Z,111.00
2022-12-10T00:14:59.793Z,112.00
2022-12-10T00:15:59.806Z,109.60
2022-12-10T00:16:59.799Z,100.30
2022-12-10T00:17:59.815Z,105.00
2022-12-10T00:18:59.828Z,169.90
2022-12-10T00:19:59.740Z,172.30
2022-12-10T00:20:59.713Z,118.70
2022-12-10T00:21:59.691Z,134.30
2022-12-10T00:22:59.746Z,113.70
2022-12-10T00:23:59.717Z,107.30
2022-12-10T00:24:59.715Z,109.30
2022-12-10T00:25:59.655Z,110.20
2022-12-10T00:26:59.672Z,113.10
2022-12-10T00:27:59.776Z,113.60
2022-12-10T00:28:59.682Z,106.70
2022-12-10T00:29:59.635Z,110.90
2022-12-10T00:30:59.649Z,160.20
2022-12-10T00:31:59.612Z,179.20
2022-12-10T00:32:59.619Z,194.30
2022-12-10T00:33:59.604Z,187.70
2022-12-10T00:34:59.620Z,198.50
2022-12-10T00:35:59.619Z,120.60
2022-12-10T00:36:59.592Z,114.50
2022-12-10T00:37:59.523Z,112.40
2022-12-10T00:38:59.560Z,107.20
2022-12-10T00:39:59.520Z,107.90
2022-12-10T00:40:59.556Z,105.90
2022-12-10T00:41:59.491Z,105.70
2022-12-10T00:42:59.545Z,102.30
2022-12-10T00:43:59.493Z,112.40
2022-12-10T00:44:59.492Z,181.50
2022-12-10T00:45:59.631Z,195.80
2022-12-10T00:46:59.570Z,203.80
2022-12-10T00:47:59.560Z,217.10
2022-12-10T00:48:59.445Z,209.80
2022-12-10T00:49:59.404Z,241.40
2022-12-10T00:50:59.475Z,238.10
2022-12-10T00:51:59.405Z,135.20
2022-12-10T00:52:59.394Z,138.40
2022-12-10T00:53:59.472Z,131.60
2022-12-10T00:54:59.452Z,120.00
2022-12-10T00:55:59.388Z,119.50
2022-12-10T00:56:59.417Z,128.70
2022-12-10T00:57:59.421Z,139.90
2022-12-10T00:58:59.345Z,196.80
2022-12-10T00:59:59.352Z,185.60
2022-12-10T01:00:59.404Z,127.70
2022-12-10T01:01:59.391Z,119.50
2022-12-10T01:02:59.353Z,123.80
2022-12-10T01:03:59.324Z,119.80
2022-12-10T01:04:59.287Z,154.40
2022-12-10T01:05:59.266Z,203.00
2022-12-10T01:06:59.269Z,216.10
2022-12-10T01:07:59.347Z,165.30
2022-12-10T01:08:59.266Z,187.40
2022-12-10T01:10:00.164Z,139.30
2022-12-10T01:10:59.249Z,135.10
2022-12-10T01:11:59.206Z,128.40
2022-12-10T01:12:59.233Z,201.10
2022-12-10T01:13:59.198Z,193.30
2022-12-10T01:14:59.301Z,199.30
2022-12-10T01:15:59.204Z,211.50
2022-12-10T01:16:59.160Z,148.60
2022-12-10T01:17:59.180Z,137.70
2022-12-10T01:18:59.177Z,126.00
2022-12-10T01:19:59.170Z,125.70
2022-12-10T01:20:59.184Z,121.80
2022-12-10T01:21:59.163Z,134.60
2022-12-10T01:22:59.214Z,130.80
2022-12-10T01:23:59.219Z,131.30
2022-12-10T01:24:59.155Z,128.10
2022-12-10T01:25:59.131Z,131.90
2022-12-10T01:26:59.101Z,140.60
2022-12-10T01:27:59.108Z,177.20
2022-12-10T01:28:59.041Z,190.90
2022-12-10T01:29:59.113Z,214.90
2022-12-10T01:30:59.049Z,155.80
2022-12-10T01:31:59.070Z,142.30
2022-12-10T01:32:59.047Z,139.60
2022-12-10T01:33:59.215Z,131.90
2022-12-10T01:34:59.078Z,134.10
2022-12-10T01:35:59.009Z,140.00
2022-12-10T01:36:58.991Z,143.40
2022-12-10T01:37:58.967Z,148.30
2022-12-10T01:38:58.954Z,177.30
2022-12-10T01:39:58.969Z,198.50
2022-12-10T01:40:58.984Z,173.70
2022-12-10T01:41:58.931Z,146.60
2022-12-10T01:43:00.497Z,140.70
2022-12-10T01:43:58.954Z,139.30
2022-12-10T01:44:58.927Z,126.70
2022-12-10T01:45:58.919Z,135.50
2022-12-10T01:46:58.846Z,142.10
2022-12-10T01:48:02.295Z,141.90
2022-12-10T01:48:58.892Z,170.90
2022-12-10T01:49:58.899Z,199.60
2022-12-10T01:50:58.911Z,137.20
2022-12-10T01:51:58.875Z,136.60
2022-12-10T01:52:58.856Z,129.80
2022-12-10T01:53:58.819Z,134.80
2022-12-10T01:54:58.808Z,149.20
2022-12-10T01:55:58.773Z,139.50
2022-12-10T01:56:58.819Z,130.90
2022-12-10T01:57:58.791Z,126.80
2022-12-10T01:58:58.780Z,134.30
2022-12-10T01:59:58.844Z,129.70
2022-12-10T02:00:58.859Z,131.70
2022-12-10T02:01:58.773Z,129.10
2022-12-10T02:02:58.777Z,181.90
2022-12-10T02:03:58.740Z,184.60
2022-12-10T02:04:58.707Z,188.10
2022-12-10T02:05:58.740Z,177.90
2022-12-10T02:06:58.695Z,156.40
2022-12-10T02:07:58.716Z,156.90
2022-12-10T02:08:58.652Z,150.00
2022-12-10T02:09:58.692Z,169.20
2022-12-10T02:10:58.702Z,137.00
2022-12-10T02:11:58.670Z,135.90
2022-12-10T02:12:58.621Z,130.80
2022-12-10T02:13:58.582Z,135.10
2022-12-10T02:14:58.698Z,155.80
2022-12-10T02:15:58.678Z,121.00
2022-12-10T02:16:58.642Z,146.00
2022-12-10T02:17:58.619Z,124.40
2022-12-10T02:18:58.594Z,122.20
2022-12-10T02:19:58.574Z,126.50
2022-12-10T02:20:58.591Z,164.00
2022-12-10T02:21:58.529Z,160.70
2022-12-10T02:22:58.520Z,137.50
2022-12-10T02:23:58.495Z,143.80
2022-12-10T02:24:58.533Z,149.00
2022-12-10T02:25:58.532Z,129.80
2022-12-10T02:26:58.483Z,130.00
2022-12-10T02:27:58.467Z,128.80
2022-12-10T02:28:58.515Z,141.20
2022-12-10T02:29:58.491Z,179.20
2022-12-10T02:30:58.438Z,197.90
2022-12-10T02:31:58.495Z,215.70
2022-12-10T02:32:58.503Z,231.20
2022-12-10T02:33:58.479Z,212.90
2022-12-10T02:34:58.480Z,229.20
2022-12-10T02:35:58.487Z,230.00
2022-12-10T02:36:58.444Z,152.60
2022-12-10T02:37:58.391Z,146.40
2022-12-10T02:38:58.406Z,153.00
2022-12-10T02:39:58.410Z,141.70
2022-12-10T02:40:58.341Z,165.80
2022-12-10T02:41:58.324Z,185.60
2022-12-10T02:42:58.383Z,226.70
2022-12-10T02:43:58.282Z,234.80
2022-12-10T02:44:58.308Z,187.10
2022-12-10T02:45:58.429Z,184.30
2022-12-10T02:46:58.295Z,170.30
2022-12-10T02:47:58.293Z,178.10
2022-12-10T02:48:58.348Z,156.00
2022-12-10T02:49:58.238Z,162.60
2022-12-10T02:50:58.323Z,220.50
2022-12-10T02:51:58.276Z,207.50
2022-12-10T02:52:58.355Z,147.90
2022-12-10T02:53:58.263Z,138.50
2022-12-10T02:54:58.238Z,139.40
2022-12-10T02:55:58.209Z,131.30
2022-12-10T02:56:58.272Z,129.00
2022-12-10T02:57:58.205Z,133.90
2022-12-10T02:58:58.171Z,153.10
2022-12-10T02:59:58.128Z,125.10
2022-12-10T03:00:58.184Z,142.40
2022-12-10T03:01:58.145Z,148.10
2022-12-10T03:02:58.158Z,162.70
2022-12-10T03:03:58.145Z,201.70
2022-12-10T03:04:58.117Z,196.80
2022-12-10T03:05:58.099Z,224.30
2022-12-10T03:06:58.099Z,138.70
2022-12-10T03:07:58.090Z,133.40
2022-12-10T03:08:58.073Z,136.80
2022-12-10T03:09:58.050Z,155.50
2022-12-10T03:10:58.102Z,131.00
2022-12-10T03:11:58.082Z,141.30
2022-12-10T03:12:58.058Z,139.00
2022-12-10T03:13:58.033Z,130.40
2022-12-10T03:14:57.999Z,124.60
2022-12-10T03:15:58.063Z,129.20
2022-12-10T03:16:58.144Z,126.00
2022-12-10T03:17:58.088Z,120.90
2022-12-10T03:18:58.023Z,122.70
2022-12-10T03:19:57.995Z,147.40
2022-12-10T03:20:58.028Z,125.20
2022-12-10T03:21:57.957Z,128.60
2022-12-10T03:22:57.937Z,151.80
2022-12-10T03:23:57.951Z,151.10
2022-12-10T03:24:57.929Z,128.50
2022-12-10T03:25:57.953Z,125.00
2022-12-10T03:26:57.899Z,122.00
2022-12-10T03:27:57.876Z,119.00
2022-12-10T03:28:57.895Z,184.40
2022-12-10T03:29:57.922Z,171.00
2022-12-10T03:30:57.848Z,197.60
2022-12-10T03:31:57.823Z,165.60
2022-12-10T03:32:57.869Z,191.40
2022-12-10T03:33:57.843Z,188.50
2022-12-10T03:34:57.832Z,135.80
2022-12-10T03:35:57.826Z,131.20
2022-12-10T03:36:57.815Z,133.90
2022-12-10T03:37:57.798Z,135.90
2022-12-10T03:38:57.808Z,144.40
2022-12-10T03:39:57.740Z,139.00
2022-12-10T03:40:57.766Z,142.60
2022-12-10T03:41:57.726Z,140.30
2022-12-10T03:42:57.769Z,131.10
2022-12-10T03:43:57.713Z,132.60
2022-12-10T03:44:57.713Z,136.50
2022-12-10T03:45:57.821Z,140.20
2022-12-10T03:46:57.720Z,148.10
2022-12-10T03:47:57.685Z,152.40
2022-12-10T03:48:57.654Z,128.40
2022-12-10T03:49:57.658Z,129.50
2022-12-10T03:50:57.625Z,123.00
2022-12-10T03:51:57.666Z,127.90
2022-12-10T03:52:57.619Z,124.00
2022-12-10T03:53:57.599Z,116.20
2022-12-10T03:54:57.589Z,130.40
2022-12-10T03:55:57.606Z,182.60
2022-12-10T03:56:57.638Z,150.60
2022-12-10T03:57:57.619Z,123.00
2022-12-10T03:58:57.553Z,117.90
2022-12-10T03:59:57.609Z,114.80
2022-12-10T04:00:57.545Z,117.00
2022-12-10T04:01:57.557Z,125.40
2022-12-10T04:02:57.553Z,119.30
2022-12-10T04:03:57.681Z,174.20
2022-12-10T04:04:57.565Z,186.60
2022-12-10T04:05:57.497Z,175.90
2022-12-10T04:06:57.503Z,185.20
2022-12-10T04:07:57.521Z,170.00
2022-12-10T04:08:58.973Z,172.90
2022-12-10T04:09:57.490Z,192.80
2022-12-10T04:10:57.467Z,186.80
2022-12-10T04:11:57.433Z,184.50
2022-12-10T04:12:57.495Z,204.90
2022-12-10T04:13:57.422Z,204.20
2022-12-10T04:14:57.428Z,197.70
2022-12-10T04:15:57.444Z,205.30
2022-12-10T04:16:57.403Z,193.40
2022-12-10T04:17:57.404Z,232.20
2022-12-10T04:19:00.819Z,251.70
2022-12-10T04:19:57.380Z,142.00
2022-12-10T04:20:57.386Z,202.30
2022-12-10T04:21:57.313Z,210.70
2022-12-10T04:22:57.344Z,169.90
2022-12-10T04:23:57.378Z,156.90
2022-12-10T04:24:57.313Z,198.60
2022-12-10T04:25:57.275Z,210.80
2022-12-10T04:26:57.336Z,187.60
2022-12-10T04:27:57.387Z,173.20
2022-12-10T04:28:57.291Z,134.00
2022-12-10T04:29:57.309Z,129.10
2022-12-10T04:30:57.364Z,118.00
2022-12-10T04:31:57.280Z,116.10
2022-12-10T04:32:57.337Z,112.70
2022-12-10T04:33:57.304Z,131.20
2022-12-10T04:34:57.218Z,113.30
2022-12-10T04:35:57.234Z,111.70
2022-12-10T04:36:57.197Z,112.80
2022-12-10T04:37:57.193Z,114.90
2022-12-10T04:38:57.156Z,104.40
2022-12-10T04:39:57.230Z,118.60
2022-12-10T04:40:57.165Z,111.80
2022-12-10T04:41:57.168Z,107.90
2022-12-10T04:42:57.251Z,96.70
2022-12-10T04:43:57.140Z,96.70
2022-12-10T04:44:57.109Z,95.90
2022-12-10T04:45:57.186Z,97.00
2022-12-10T04:46:57.071Z,94.40
2022-12-10T04:47:57.072Z,92.70
2022-12-10T04:48:57.066Z,97.30
2022-12-10T04:49:57.075Z,102.70
2022-12-10T04:50:57.050Z,95.10
2022-12-10T04:51:57.048Z,95.60
2022-12-10T04:52:57.025Z,98.50
2022-12-10T04:53:57.016Z,92.70
2022-12-10T04:54:57.016Z,93.40
2022-12-10T04:55:57.008Z,92.60
2022-12-10T04:56:56.989Z,122.60
2022-12-10T04:57:56.959Z,95.70
2022-12-10T04:58:56.990Z,98.70
2022-12-10T04:59:56.982Z,94.90
2022-12-10T05:00:56.922Z,127.80
2022-12-10T05:01:56.972Z,108.80
2022-12-10T05:02:56.932Z,123.90
2022-12-10T05:03:57.026Z,106.40
2022-12-10T05:04:56.896Z,100.20
2022-12-10T05:05:56.928Z,102.30
2022-12-10T05:06:56.994Z,102.80
2022-12-10T05:07:56.957Z,98.80
2022-12-10T05:08:56.893Z,105.50
2022-12-10T05:09:56.853Z,104.30
2022-12-10T05:10:56.847Z,103.90
2022-12-10T05:11:56.854Z,107.90
2022-12-10T05:12:56.849Z,105.50
2022-12-10T05:13:56.869Z,105.60
2022-12-10T05:14:56.806Z,97.30
2022-12-10T05:15:56.924Z,109.90
2022-12-10T05:16:56.853Z,102.30
2022-12-10T05:17:56.801Z,160.00
2022-12-10T05:18:56.816Z,201.80
2022-12-10T05:19:56.779Z,110.40
2022-12-10T05:20:56.722Z,94.20
2022-12-10T05:21:56.786Z,92.60
2022-12-10T05:22:56.768Z,95.40
2022-12-10T05:23:56.710Z,98.20
2022-12-10T05:24:56.710Z,95.30
2022-12-10T05:25:56.702Z,95.20
2022-12-10T05:26:56.699Z,93.80
2022-12-10T05:27:56.707Z,104.10
2022-12-10T05:28:56.655Z,100.60
2022-12-10T05:29:56.697Z,89.70
2022-12-10T05:30:56.706Z,87.80
2022-12-10T05:31:56.658Z,98.00
2022-12-10T05:32:56.639Z,165.80
2022-12-10T05:33:56.606Z,141.30
2022-12-10T05:34:56.608Z,108.60
2022-12-10T05:35:56.608Z,98.90
2022-12-10T05:36:56.574Z,96.50
2022-12-10T05:37:56.559Z,92.80
2022-12-10T05:38:56.631Z,83.70
2022-12-10T05:39:56.581Z,83.70
2022-12-10T05:40:57.237Z,83.50
2022-12-10T05:41:56.535Z,78.00
2022-12-10T05:42:56.524Z,83.50
2022-12-10T05:43:56.550Z,81.30
2022-12-10T05:44:56.523Z,75.10
2022-12-10T05:45:56.648Z,75.70
2022-12-10T05:46:56.499Z,82.70
2022-12-10T05:47:56.499Z,80.40
2022-12-10T05:48:56.506Z,83.40
2022-12-10T05:49:56.475Z,81.40
2022-12-10T05:50:56.453Z,81.50
2022-12-10T05:51:56.472Z,82.20
2022-12-10T05:52:56.430Z,90.40
2022-12-10T05:53:56.529Z,87.40
2022-12-10T05:54:56.421Z,82.70
2022-12-10T05:55:56.438Z,76.10
2022-12-10T05:56:56.395Z,74.80
2022-12-10T05:57:56.412Z,75.40
2022-12-10T05:58:56.386Z,80.60
2022-12-10T05:59:56.348Z,129.40
2022-12-10T06:00:56.407Z,120.20
2022-12-10T06:01:56.403Z,99.90
2022-12-10T06:02:56.448Z,88.50
2022-12-10T06:03:56.328Z,112.60
2022-12-10T06:04:56.378Z,124.10
2022-12-10T06:05:56.385Z,84.60
2022-12-10T06:06:56.293Z,128.10
2022-12-10T06:07:56.309Z,119.50
2022-12-10T06:08:56.292Z,92.80
2022-12-10T06:09:56.292Z,83.60
2022-12-10T06:10:56.236Z,77.70
2022-12-10T06:11:56.276Z,77.00
2022-12-10T06:12:56.254Z,70.80
2022-12-10T06:13:56.828Z,72.50
2022-12-10T06:14:56.280Z,68.60
2022-12-10T06:15:56.249Z,72.30
2022-12-10T06:16:56.186Z,73.50
2022-12-10T06:17:56.209Z,76.30
2022-12-10T06:18:56.212Z,71.50
2022-12-10T06:19:56.195Z,86.30
2022-12-10T06:20:56.157Z,80.70
2022-12-10T06:21:56.177Z,80.10
2022-12-10T06:22:56.205Z,87.40
2022-12-10T06:23:56.131Z,93.30
2022-12-10T06:24:56.142Z,88.10
2022-12-10T06:25:56.117Z,85.20
2022-12-10T06:26:56.120Z,79.30
2022-12-10T06:27:56.128Z,76.90
2022-12-10T06:28:56.082Z,80.90
2022-12-10T06:29:56.073Z,79.60
2022-12-10T06:30:56.093Z,71.50
2022-12-10T06:31:56.125Z,71.60
2022-12-10T06:32:56.111Z,68.80
2022-12-10T06:33:56.025Z,73.60
2022-12-10T06:34:56.015Z,73.30
2022-12-10T06:35:56.041Z,71.40
2022-12-10T06:36:56.050Z,74.60
2022-12-10T06:37:56.027Z,74.00
2022-12-10T06:38:55.992Z,77.60
2022-12-10T06:39:55.958Z,73.60
2022-12-10T06:40:55.973Z,68.80
2022-12-10T06:41:58.962Z,76.90
2022-12-10T06:42:55.964Z,70.10
2022-12-10T06:43:55.985Z,68.50
2022-12-10T06:44:55.966Z,65.40
2022-12-10T06:45:55.919Z,65.70
2022-12-10T06:46:55.990Z,67.40
2022-12-10T06:47:55.986Z,74.50
2022-12-10T06:48:55.822Z,71.30
2022-12-10T06:49:55.842Z,72.70
2022-12-10T06:50:55.831Z,77.70
2022-12-10T06:51:55.800Z,73.50
2022-12-10T06:52:55.818Z,78.80
2022-12-10T06:53:55.856Z,76.50
2022-12-10T06:54:55.831Z,76.30
2022-12-10T06:55:55.779Z,70.50
2022-12-10T06:56:55.780Z,75.90
2022-12-10T06:57:55.778Z,86.80
2022-12-10T06:58:55.848Z,86.90
2022-12-10T06:59:55.730Z,79.40
2022-12-10T07:00:55.750Z,78.30
2022-12-10T07:01:55.773Z,81.60
2022-12-10T07:02:55.688Z,77.40
2022-12-10T07:03:55.732Z,78.10
2022-12-10T07:04:55.717Z,76.30
2022-12-10T07:05:55.696Z,72.80
2022-12-10T07:06:55.691Z,70.70
2022-12-10T07:07:55.725Z,68.40
2022-12-10T07:08:55.645Z,68.70
2022-12-10T07:09:55.640Z,70.10
2022-12-10T07:10:55.643Z,69.30
2022-12-10T07:11:55.600Z,71.20
2022-12-10T07:12:55.603Z,71.10
2022-12-10T07:13:55.619Z,67.00
2022-12-10T07:14:55.632Z,70.30
2022-12-10T07:15:55.619Z,66.30
2022-12-10T07:16:55.535Z,64.90
2022-12-10T07:17:55.653Z,65.60
2022-12-10T07:18:55.581Z,71.80
2022-12-10T07:19:55.553Z,70.80
2022-12-10T07:20:55.556Z,71.00
2022-12-10T07:21:55.524Z,67.30
2022-12-10T07:22:55.558Z,65.00
2022-12-10T07:23:56.509Z,60.60
2022-12-10T07:24:55.541Z,67.30
2022-12-10T07:25:55.524Z,72.40
2022-12-10T07:26:55.486Z,70.80
2022-12-10T07:27:57.889Z,65.60
2022-12-10T07:28:56.859Z,68.00
2022-12-10T07:29:55.466Z,76.70
2022-12-10T07:30:55.443Z,78.40
2022-12-10T07:31:55.455Z,73.60
2022-12-10T07:32:55.385Z,69.40
2022-12-10T07:33:55.397Z,71.20
2022-12-10T07:34:55.375Z,67.90
2022-12-10T07:35:55.406Z,72.90
2022-12-10T07:36:55.398Z,67.70
2022-12-10T07:37:55.338Z,70.20
2022-12-10T07:38:55.347Z,71.80
2022-12-10T07:39:55.389Z,89.00
2022-12-10T07:40:55.318Z,74.20
2022-12-10T07:41:55.334Z,73.90
2022-12-10T07:42:55.306Z,73.60
2022-12-10T07:43:55.278Z,67.90
2022-12-10T07:44:55.288Z,68.30
2022-12-10T07:45:55.299Z,69.20
2022-12-10T07:46:55.432Z,66.40
2022-12-10T07:47:55.286Z,66.70
2022-12-10T07:48:55.267Z,74.40
2022-12-10T07:49:55.323Z,70.40
2022-12-10T07:50:58.485Z,71.10
2022-12-10T07:51:55.246Z,76.50
2022-12-10T07:52:55.252Z,82.40
2022-12-10T07:53:55.233Z,100.00
2022-12-10T07:54:55.184Z,89.20
2022-12-10T07:55:55.214Z,80.70
2022-12-10T07:56:55.179Z,74.30
2022-12-10T07:57:55.191Z,69.80
2022-12-10T07:58:55.138Z,72.60
2022-12-10T07:59:55.156Z,87.30
2022-12-10T08:00:55.224Z,89.40
2022-12-10T08:01:55.102Z,122.20
2022-12-10T08:02:55.235Z,109.40
2022-12-10T08:03:55.163Z,129.00
2022-12-10T08:04:55.106Z,124.50
2022-12-10T08:05:55.071Z,142.10
2022-12-10T08:06:55.091Z,145.60
2022-12-10T08:08:01.180Z,106.00
2022-12-10T08:08:55.082Z,100.50
2022-12-10T08:09:55.130Z,91.60
2022-12-10T08:10:55.048Z,83.90
2022-12-10T08:11:55.025Z,78.70
2022-12-10T08:12:55.051Z,76.20
2022-12-10T08:13:57.251Z,76.20
2022-12-10T08:14:55.021Z,80.40
2022-12-10T08:15:55.089Z,95.90
2022-12-10T08:16:54.997Z,93.30
2022-12-10T08:17:54.992Z,84.30
2022-12-10T08:18:54.991Z,85.30
2022-12-10T08:19:54.965Z,89.30
2022-12-10T08:20:54.959Z,97.20
2022-12-10T08:21:54.955Z,99.10
2022-12-10T08:22:54.905Z,99.00
2022-12-10T08:23:54.981Z,109.20
2022-12-10T08:24:54.908Z,128.50
2022-12-10T08:25:54.908Z,149.30
2022-12-10T08:26:54.865Z,156.60
2022-12-10T08:27:54.874Z,161.30
2022-12-10T08:28:54.862Z,180.10
2022-12-10T08:29:54.857Z,188.90
2022-12-10T08:30:54.846Z,219.40
2022-12-10T08:31:54.873Z,227.30
2022-12-10T08:32:54.849Z,225.20
2022-12-10T08:33:54.825Z,209.80
2022-12-10T08:34:54.849Z,204.60
2022-12-10T08:35:54.838Z,191.70
2022-12-10T08:36:54.764Z,214.30
2022-12-10T08:37:54.741Z,215.80
2022-12-10T08:38:54.795Z,216.20
2022-12-10T08:39:54.754Z,235.40
2022-12-10T08:40:54.734Z,230.70
2022-12-10T08:41:54.700Z,231.40
2022-12-10T08:42:57.370Z,241.10
2022-12-10T08:43:54.718Z,232.10
2022-12-10T08:44:54.759Z,238.90
2022-12-10T08:45:54.741Z,248.60
2022-12-10T08:46:54.711Z,238.60
2022-12-10T08:47:54.653Z,258.20
2022-12-10T08:48:54.684Z,269.80
2022-12-10T08:49:54.636Z,267.90
2022-12-10T08:50:54.633Z,260.30
2022-12-10T08:51:54.635Z,290.00
2022-12-10T08:52:54.667Z,295.60
2022-12-10T08:53:54.631Z,295.30
2022-12-10T08:54:54.601Z,270.50
2022-12-10T08:55:54.606Z,308.00
2022-12-10T08:56:54.612Z,307.10
2022-12-10T08:57:54.570Z,281.60
2022-12-10T08:58:54.566Z,281.60
2022-12-10T08:59:54.522Z,301.30
2022-12-10T09:00:54.587Z,295.90
2022-12-10T09:01:56.586Z,287.30
2022-12-10T09:02:54.575Z,308.90
2022-12-10T09:03:54.506Z,281.50
2022-12-10T09:04:54.508Z,257.10
2022-12-10T09:05:54.520Z,288.90
2022-12-10T09:06:54.559Z,269.90
2022-12-10T09:07:54.513Z,286.30
2022-12-10T09:08:54.489Z,289.10
2022-12-10T09:09:54.468Z,263.50
2022-12-10T09:10:54.472Z,275.10
2022-12-10T09:11:54.459Z,257.80
2022-12-10T09:12:58.572Z,295.40
2022-12-10T09:13:54.413Z,311.40
2022-12-10T09:14:54.443Z,293.30
2022-12-10T09:15:54.372Z,284.20
2022-12-10T09:16:54.469Z,302.70
2022-12-10T09:17:54.409Z,287.90
2022-12-10T09:18:54.440Z,284.20
2022-12-10T09:19:54.380Z,271.70
2022-12-10T09:20:54.397Z,268.50
2022-12-10T09:21:54.316Z,289.80
2022-12-10T09:22:54.333Z,290.00
2022-12-10T09:23:54.323Z,272.90
2022-12-10T09:24:54.315Z,283.40
2022-12-10T09:25:54.300Z,296.80
2022-12-10T09:26:54.325Z,301.10
2022-12-10T09:27:54.294Z,300.50
2022-12-10T09:28:54.252Z,313.10
2022-12-10T09:29:54.221Z,312.70
2022-12-10T09:30:54.237Z,312.60
2022-12-10T09:31:54.348Z,307.70
2022-12-10T09:32:54.244Z,309.90
2022-12-10T09:33:54.231Z,318.90
2022-12-10T09:34:54.223Z,320.60
2022-12-10T09:35:54.177Z,315.40
2022-12-10T09:36:54.196Z,315.00
2022-12-10T09:37:54.204Z,311.70
2022-12-10T09:38:54.162Z,300.00
2022-12-10T09:39:54.136Z,320.40
2022-12-10T09:40:54.180Z,293.80
2022-12-10T09:41:54.132Z,295.70
2022-12-10T09:42:54.163Z,278.20
2022-12-10T09:43:54.116Z,303.70
2022-12-10T09:44:54.146Z,309.30
2022-12-10T09:45:54.127Z,311.40
2022-12-10T09:46:54.085Z,282.70
2022-12-10T09:47:54.107Z,278.60
2022-12-10T09:48:54.144Z,277.80
2022-12-10T09:49:54.125Z,267.10
2022-12-10T09:50:54.146Z,260.10
2022-12-10T09:51:54.031Z,262.40
2022-12-10T09:52:54.030Z,245.80
2022-12-10T09:53:54.046Z,252.60
2022-12-10T09:54:54.063Z,250.80
2022-12-10T09:55:53.983Z,252.00
2022-12-10T09:56:53.990Z,246.80
2022-12-10T09:57:53.978Z,247.30
2022-12-10T09:58:54.006Z,262.20
2022-12-10T09:59:53.977Z,246.40
2022-12-10T10:00:53.982Z,265.50
2022-12-10T10:01:54.091Z,274.50
2022-12-10T10:02:53.962Z,267.50
2022-12-10T10:03:53.960Z,267.70
2022-12-10T10:04:53.894Z,267.80
2022-12-10T10:05:54.980Z,278.40
2022-12-10T10:06:53.876Z,280.10
2022-12-10T10:07:53.904Z,265.70
2022-12-10T10:08:53.885Z,291.90
2022-12-10T10:09:53.859Z,277.20
2022-12-10T10:10:53.924Z,284.10
2022-12-10T10:11:53.900Z,282.80
2022-12-10T10:12:53.823Z,287.90
2022-12-10T10:13:53.815Z,292.40
2022-12-10T10:14:53.805Z,280.40
2022-12-10T10:15:53.869Z,279.00
2022-12-10T10:16:53.855Z,280.30
2022-12-10T10:17:53.803Z,287.10
2022-12-10T10:18:53.772Z,290.00
2022-12-10T10:19:53.737Z,292.00
2022-12-10T10:20:53.755Z,283.80
2022-12-10T10:21:53.727Z,305.80
2022-12-10T10:22:53.732Z,291.50
2022-12-10T10:23:53.736Z,300.80
2022-12-10T10:24:53.719Z,290.70
2022-12-10T10:25:53.704Z,298.00
2022-12-10T10:26:53.705Z,297.10
2022-12-10T10:27:53.656Z,301.40
2022-12-10T10:28:53.668Z,311.50
2022-12-10T10:29:57.929Z,307.30
2022-12-10T10:30:53.821Z,293.80
2022-12-10T10:31:53.647Z,306.60
2022-12-10T10:32:53.712Z,299.30
2022-12-10T10:33:53.675Z,298.20
2022-12-10T10:34:53.679Z,298.20
2022-12-10T10:35:53.652Z,288.10
2022-12-10T10:36:53.645Z,293.30
2022-12-10T10:37:53.657Z,302.70
2022-12-10T10:38:53.584Z,289.00
2022-12-10T10:39:53.567Z,295.10
2022-12-10T10:40:53.570Z,286.70
2022-12-10T10:41:57.893Z,289.00
2022-12-10T10:42:53.540Z,281.90
2022-12-10T10:43:53.525Z,294.00
2022-12-10T10:44:53.525Z,292.40
2022-12-10T10:45:53.540Z,288.90
2022-12-10T10:46:53.556Z,293.00
2022-12-10T10:47:53.510Z,290.00
2022-12-10T10:48:53.550Z,280.50
2022-12-10T10:49:53.487Z,297.20
2022-12-10T10:50:53.471Z,286.40
2022-12-10T10:51:53.448Z,290.20
2022-12-10T10:52:53.489Z,274.20
2022-12-10T10:53:53.454Z,276.50
2022-12-10T10:54:53.448Z,276.10
2022-12-10T10:55:53.424Z,280.90
2022-12-10T10:56:53.436Z,274.90
2022-12-10T10:57:53.469Z,268.80
2022-12-10T10:58:53.384Z,274.00
2022-12-10T10:59:53.406Z,266.90
2022-12-10T11:00:53.425Z,267.40
2022-12-10T11:01:53.330Z,285.50
2022-12-10T11:02:53.395Z,280.00
2022-12-10T11:03:53.384Z,277.50
2022-12-10T11:04:53.343Z,290.90
2022-12-10T11:05:53.367Z,290.50
2022-12-10T11:06:53.555Z,283.00
2022-12-10T11:07:53.369Z,278.70
2022-12-10T11:08:53.345Z,271.40
2022-12-10T11:09:53.390Z,291.40
2022-12-10T11:10:53.392Z,301.60
2022-12-10T11:11:53.259Z,302.80
2022-12-10T11:12:53.289Z,295.00
2022-12-10T11:13:53.313Z,279.50
2022-12-10T11:14:53.377Z,272.50
2022-12-10T11:15:53.263Z,290.00
2022-12-10T11:16:53.382Z,280.00
2022-12-10T11:17:53.277Z,288.30
2022-12-10T11:18:53.326Z,275.00
2022-12-10T11:19:53.268Z,279.90
2022-12-10T11:20:53.469Z,291.30
2022-12-10T11:21:53.197Z,286.50
2022-12-10T11:22:53.211Z,282.30
2022-12-10T11:23:53.168Z,251.70
2022-12-10T11:24:53.107Z,265.60
2022-12-10T11:25:53.111Z,254.90
2022-12-10T11:26:53.094Z,269.00
2022-12-10T11:27:53.112Z,267.50
2022-12-10T11:28:53.108Z,243.60
2022-12-10T11:29:53.077Z,249.00
2022-12-10T11:30:53.140Z,249.30
2022-12-10T11:31:53.078Z,238.10
2022-12-10T11:32:53.078Z,260.40
2022-12-10T11:33:53.045Z,241.60
2022-12-10T11:34:53.105Z,239.10
2022-12-10T11:35:53.039Z,221.60
2022-12-10T11:36:53.078Z,233.60
2022-12-10T11:37:53.030Z,224.30
2022-12-10T11:38:52.984Z,217.30
2022-12-10T11:39:53.028Z,206.60
2022-12-10T11:40:53.025Z,214.10
2022-12-10T11:41:53.002Z,194.70
2022-12-10T11:42:52.955Z,192.70
2022-12-10T11:43:52.943Z,209.30
2022-12-10T11:44:52.918Z,213.90
2022-12-10T11:45:52.968Z,212.50
2022-12-10T11:46:52.901Z,204.60
2022-12-10T11:47:52.908Z,201.30
2022-12-10T11:48:52.880Z,208.50
2022-12-10T11:49:52.942Z,205.80
2022-12-10T11:50:52.899Z,204.80
2022-12-10T11:51:52.893Z,192.10
2022-12-10T11:52:52.908Z,190.70
2022-12-10T11:53:52.854Z,198.50
2022-12-10T11:54:52.848Z,199.20
2022-12-10T11:55:52.841Z,190.60
2022-12-10T11:56:52.799Z,193.00
2022-12-10T11:57:52.827Z,190.50
2022-12-10T11:58:52.875Z,192.20
2022-12-10T12:00:07.942Z,184.90
2022-12-10T12:00:59.069Z,190.10
2022-12-10T12:01:52.768Z,191.20
2022-12-10T12:02:52.845Z,180.40
2022-12-10T12:03:52.811Z,186.70
2022-12-10T12:04:52.723Z,193.40
2022-12-10T12:05:52.723Z,186.60
2022-12-10T12:06:52.809Z,179.90
2022-12-10T12:07:52.776Z,193.30
2022-12-10T12:08:52.794Z,185.10
2022-12-10T12:09:52.710Z,183.70
2022-12-10T12:10:54.306Z,189.70
2022-12-10T12:11:52.653Z,185.90
2022-12-10T12:12:56.035Z,193.20
2022-12-10T12:13:52.673Z,185.40
2022-12-10T12:14:52.641Z,195.00
2022-12-10T12:15:52.717Z,189.20
2022-12-10T12:16:52.639Z,190.60
2022-12-10T12:17:52.650Z,203.70
2022-12-10T12:18:52.600Z,199.30
2022-12-10T12:19:52.609Z,224.90
2022-12-10T12:20:52.559Z,209.70
2022-12-10T12:21:52.587Z,217.30
2022-12-10T12:22:52.577Z,221.60
2022-12-10T12:23:52.562Z,198.60
2022-12-10T12:24:52.526Z,203.40
2022-12-10T12:25:52.770Z,198.90
2022-12-10T12:26:52.526Z,203.60
2022-12-10T12:27:52.514Z,202.10
2022-12-10T12:28:52.490Z,197.70
2022-12-10T12:29:52.525Z,198.50
2022-12-10T12:30:52.509Z,194.20
2022-12-10T12:31:52.596Z,190.40
2022-12-10T12:32:52.497Z,186.10
2022-12-10T12:33:52.464Z,187.50
2022-12-10T12:34:57.365Z,192.20